sensor_id;sensor_type;location;lat;lon;timestamp;temperature;humidity
5901;DHT22;2976;49.764;9.796;2024-02-16T00:01:18;8.30;99.90
5901;DHT22;2976;49.764;9.796;2024-02-16T00:03:44;8.20;99.90
5901;DHT22;2976;49.764;9.796;2024-02-16T00:06:09;8.20;99.90
5901;DHT22;2976;49.764;9.796;2024-02-16T00:08:35;8.10;99.90
5901;DHT22;2976;49.764;9.796;2024-02-16T00:11:04;8.00;99.90
5901;DHT22;2976;49.764;9.796;2024-02-16T00:13:30;8.10;99.90
5901;DHT22;2976;49.764;9.796;2024-02-16T00:15:55;8.20;99.90
5901;DHT22;2976;49.764;9.796;2024-02-16T00:18:21;8.30;99.90
5901;DHT22;2976;49.764;9.796;2024-02-16T00:20:46;8.30;99.90
5901;DHT22;2976;49.764;9.796;2024-02-16T00:23:12;8.40;99.90
5901;DHT22;2976;49.764;9.796;2024-02-16T00:25:37;8.50;99.90
5901;DHT22;2976;49.764;9.796;2024-02-16T00:28:04;8.50;99.90
5901;DHT22;2976;49.764;9.796;2024-02-16T00:30:30;8.50;99.90
5901;DHT22;2976;49.764;9.796;2024-02-16T00:32:56;8.50;99.90
5901;DHT22;2976;49.764;9.796;2024-02-16T00:35:22;8.40;99.90
5901;DHT22;2976;49.764;9.796;2024-02-16T00:37:47;8.40;99.90
5901;DHT22;2976;49.764;9.796;2024-02-16T00:40:13;8.40;99.90
5901;DHT22;2976;49.764;9.796;2024-02-16T00:42:39;8.40;99.90
5901;DHT22;2976;49.764;9.796;2024-02-16T00:45:05;8.50;99.90
5901;DHT22;2976;49.764;9.796;2024-02-16T00:47:30;8.50;99.90
5901;DHT22;2976;49.764;9.796;2024-02-16T00:49:56;8.50;99.90
5901;DHT22;2976;49.764;9.796;2024-02-16T00:52:22;8.50;99.90
5901;DHT22;2976;49.764;9.796;2024-02-16T00:54:49;8.50;99.90
5901;DHT22;2976;49.764;9.796;2024-02-16T00:57:15;8.60;99.90
5901;DHT22;2976;49.764;9.796;2024-02-16T00:59:42;8.60;99.90
5901;DHT22;2976;49.764;9.796;2024-02-16T01:02:07;8.60;99.90
5901;DHT22;2976;49.764;9.796;2024-02-16T01:04:34;8.60;99.90
5901;DHT22;2976;49.764;9.796;2024-02-16T01:06:59;8.70;99.90
5901;DHT22;2976;49.764;9.796;2024-02-16T01:09:25;8.70;99.90
5901;DHT22;2976;49.764;9.796;2024-02-16T01:11:52;8.70;99.90
5901;DHT22;2976;49.764;9.796;2024-02-16T01:14:17;8.80;99.90
5901;DHT22;2976;49.764;9.796;2024-02-16T01:16:43;8.80;99.90
5901;DHT22;2976;49.764;9.796;2024-02-16T01:19:09;8.70;99.90
5901;DHT22;2976;49.764;9.796;2024-02-16T01:21:35;8.60;99.90
5901;DHT22;2976;49.764;9.796;2024-02-16T01:24:00;8.60;99.90
5901;DHT22;2976;49.764;9.796;2024-02-16T01:26:27;8.50;99.90
5901;DHT22;2976;49.764;9.796;2024-02-16T01:28:53;8.40;99.90
5901;DHT22;2976;49.764;9.796;2024-02-16T01:31:18;8.30;99.90
5901;DHT22;2976;49.764;9.796;2024-02-16T01:33:44;8.20;99.90
5901;DHT22;2976;49.764;9.796;2024-02-16T01:36:09;8.20;99.90
5901;DHT22;2976;49.764;9.796;2024-02-16T01:38:36;8.10;99.90
5901;DHT22;2976;49.764;9.796;2024-02-16T01:41:01;8.00;99.90
5901;DHT22;2976;49.764;9.796;2024-02-16T01:43:27;8.00;99.90
5901;DHT22;2976;49.764;9.796;2024-02-16T01:45:53;7.90;99.90
5901;DHT22;2976;49.764;9.796;2024-02-16T01:48:19;7.90;99.90
5901;DHT22;2976;49.764;9.796;2024-02-16T01:50:46;7.90;99.90
5901;DHT22;2976;49.764;9.796;2024-02-16T01:53:14;7.90;99.90
5901;DHT22;2976;49.764;9.796;2024-02-16T01:55:41;7.90;99.90
5901;DHT22;2976;49.764;9.796;2024-02-16T01:58:06;7.90;99.90
5901;DHT22;2976;49.764;9.796;2024-02-16T02:00:32;7.90;99.90
5901;DHT22;2976;49.764;9.796;2024-02-16T02:02:58;7.80;99.90
5901;DHT22;2976;49.764;9.796;2024-02-16T02:05:24;7.80;99.90
5901;DHT22;2976;49.764;9.796;2024-02-16T02:07:49;7.80;99.90
5901;DHT22;2976;49.764;9.796;2024-02-16T02:10:15;7.80;99.90
5901;DHT22;2976;49.764;9.796;2024-02-16T02:12:42;7.80;99.90
5901;DHT22;2976;49.764;9.796;2024-02-16T02:15:08;7.80;99.90
5901;DHT22;2976;49.764;9.796;2024-02-16T02:17:34;7.90;99.90
5901;DHT22;2976;49.764;9.796;2024-02-16T02:20:00;7.90;99.90
5901;DHT22;2976;49.764;9.796;2024-02-16T02:22:26;7.90;99.90
5901;DHT22;2976;49.764;9.796;2024-02-16T02:24:52;7.90;99.90
5901;DHT22;2976;49.764;9.796;2024-02-16T02:27:21;7.90;99.90
5901;DHT22;2976;49.764;9.796;2024-02-16T02:29:47;7.90;99.90
5901;DHT22;2976;49.764;9.796;2024-02-16T02:32:13;8.00;99.90
5901;DHT22;2976;49.764;9.796;2024-02-16T02:34:39;8.10;99.90
5901;DHT22;2976;49.764;9.796;2024-02-16T02:37:05;8.10;99.90
5901;DHT22;2976;49.764;9.796;2024-02-16T02:39:31;8.10;99.90
5901;DHT22;2976;49.764;9.796;2024-02-16T02:41:57;8.10;99.90
5901;DHT22;2976;49.764;9.796;2024-02-16T02:44:23;8.00;99.90
5901;DHT22;2976;49.764;9.796;2024-02-16T02:46:49;8.00;99.90
5901;DHT22;2976;49.764;9.796;2024-02-16T02:49:15;7.90;99.90
5901;DHT22;2976;49.764;9.796;2024-02-16T02:51:40;7.90;99.90
5901;DHT22;2976;49.764;9.796;2024-02-16T02:54:06;7.80;99.90
5901;DHT22;2976;49.764;9.796;2024-02-16T02:56:31;7.80;99.90
5901;DHT22;2976;49.764;9.796;2024-02-16T02:58:57;7.90;99.90
5901;DHT22;2976;49.764;9.796;2024-02-16T03:01:23;8.00;99.90
5901;DHT22;2976;49.764;9.796;2024-02-16T03:03:48;8.00;99.90
5901;DHT22;2976;49.764;9.796;2024-02-16T03:06:18;8.00;99.90
5901;DHT22;2976;49.764;9.796;2024-02-16T03:08:44;8.00;99.90
5901;DHT22;2976;49.764;9.796;2024-02-16T03:11:10;8.00;99.90
5901;DHT22;2976;49.764;9.796;2024-02-16T03:13:36;8.00;99.90
5901;DHT22;2976;49.764;9.796;2024-02-16T03:16:01;8.00;99.90
5901;DHT22;2976;49.764;9.796;2024-02-16T03:18:33;7.90;99.90
5901;DHT22;2976;49.764;9.796;2024-02-16T03:21:02;7.80;99.90
5901;DHT22;2976;49.764;9.796;2024-02-16T03:23:28;7.60;99.90
5901;DHT22;2976;49.764;9.796;2024-02-16T03:25:53;7.60;99.90
5901;DHT22;2976;49.764;9.796;2024-02-16T03:28:20;7.50;99.90
5901;DHT22;2976;49.764;9.796;2024-02-16T03:30:46;7.40;99.90
5901;DHT22;2976;49.764;9.796;2024-02-16T03:33:12;7.30;99.90
5901;DHT22;2976;49.764;9.796;2024-02-16T03:35:38;7.30;99.90
5901;DHT22;2976;49.764;9.796;2024-02-16T03:38:05;7.30;99.90
5901;DHT22;2976;49.764;9.796;2024-02-16T03:40:31;7.20;99.90
5901;DHT22;2976;49.764;9.796;2024-02-16T03:42:57;7.20;99.90
5901;DHT22;2976;49.764;9.796;2024-02-16T03:45:23;7.10;99.90
5901;DHT22;2976;49.764;9.796;2024-02-16T03:47:49;7.10;99.90
5901;DHT22;2976;49.764;9.796;2024-02-16T03:50:18;7.10;99.90
5901;DHT22;2976;49.764;9.796;2024-02-16T03:52:43;7.10;99.90
5901;DHT22;2976;49.764;9.796;2024-02-16T03:55:09;7.10;99.90
5901;DHT22;2976;49.764;9.796;2024-02-16T03:57:35;7.10;99.90
5901;DHT22;2976;49.764;9.796;2024-02-16T04:00:01;7.10;99.90
5901;DHT22;2976;49.764;9.796;2024-02-16T04:02:27;7.20;99.90
5901;DHT22;2976;49.764;9.796;2024-02-16T04:04:53;7.20;99.90
5901;DHT22;2976;49.764;9.796;2024-02-16T04:07:18;7.10;99.90
5901;DHT22;2976;49.764;9.796;2024-02-16T04:09:44;7.10;99.90
5901;DHT22;2976;49.764;9.796;2024-02-16T04:12:10;7.10;99.90
5901;DHT22;2976;49.764;9.796;2024-02-16T04:14:36;7.10;99.90
5901;DHT22;2976;49.764;9.796;2024-02-16T04:17:01;7.10;99.90
5901;DHT22;2976;49.764;9.796;2024-02-16T04:19:27;7.10;99.90
5901;DHT22;2976;49.764;9.796;2024-02-16T04:21:52;7.10;99.90
5901;DHT22;2976;49.764;9.796;2024-02-16T04:24:18;7.20;99.90
5901;DHT22;2976;49.764;9.796;2024-02-16T04:26:44;7.20;99.90
5901;DHT22;2976;49.764;9.796;2024-02-16T04:29:09;7.20;99.90
5901;DHT22;2976;49.764;9.796;2024-02-16T04:31:39;7.30;99.90
5901;DHT22;2976;49.764;9.796;2024-02-16T04:34:05;7.30;99.90
5901;DHT22;2976;49.764;9.796;2024-02-16T04:36:30;7.30;99.90
5901;DHT22;2976;49.764;9.796;2024-02-16T04:38:56;7.40;99.90
5901;DHT22;2976;49.764;9.796;2024-02-16T04:41:21;7.40;99.90
5901;DHT22;2976;49.764;9.796;2024-02-16T04:43:47;7.40;99.90
5901;DHT22;2976;49.764;9.796;2024-02-16T04:46:16;7.40;99.90
5901;DHT22;2976;49.764;9.796;2024-02-16T04:48:41;7.40;99.90
5901;DHT22;2976;49.764;9.796;2024-02-16T04:51:07;7.30;99.90
5901;DHT22;2976;49.764;9.796;2024-02-16T04:53:33;7.40;99.90
5901;DHT22;2976;49.764;9.796;2024-02-16T04:55:58;7.30;99.90
5901;DHT22;2976;49.764;9.796;2024-02-16T04:58:24;7.30;99.90
5901;DHT22;2976;49.764;9.796;2024-02-16T05:00:49;7.30;99.90
5901;DHT22;2976;49.764;9.796;2024-02-16T05:03:15;7.30;99.90
5901;DHT22;2976;49.764;9.796;2024-02-16T05:05:41;7.30;99.90
5901;DHT22;2976;49.764;9.796;2024-02-16T05:08:06;7.30;99.90
5901;DHT22;2976;49.764;9.796;2024-02-16T05:10:32;7.30;99.90
5901;DHT22;2976;49.764;9.796;2024-02-16T05:12:57;7.40;99.90
5901;DHT22;2976;49.764;9.796;2024-02-16T05:15:23;7.40;99.90
5901;DHT22;2976;49.764;9.796;2024-02-16T05:17:49;7.40;99.90
5901;DHT22;2976;49.764;9.796;2024-02-16T05:20:15;7.50;99.90
5901;DHT22;2976;49.764;9.796;2024-02-16T05:22:44;7.50;99.90
5901;DHT22;2976;49.764;9.796;2024-02-16T05:25:12;7.50;99.90
5901;DHT22;2976;49.764;9.796;2024-02-16T05:27:37;7.60;99.90
5901;DHT22;2976;49.764;9.796;2024-02-16T05:30:04;7.60;99.90
5901;DHT22;2976;49.764;9.796;2024-02-16T05:32:36;7.50;99.90
5901;DHT22;2976;49.764;9.796;2024-02-16T05:35:06;7.50;99.90
5901;DHT22;2976;49.764;9.796;2024-02-16T05:37:44;7.60;99.90
5901;DHT22;2976;49.764;9.796;2024-02-16T05:40:10;7.70;99.90
5901;DHT22;2976;49.764;9.796;2024-02-16T05:42:56;7.70;99.90
5901;DHT22;2976;49.764;9.796;2024-02-16T05:45:25;7.70;99.90
5901;DHT22;2976;49.764;9.796;2024-02-16T05:47:53;7.70;99.90
5901;DHT22;2976;49.764;9.796;2024-02-16T05:50:21;7.60;99.90
5901;DHT22;2976;49.764;9.796;2024-02-16T05:52:46;7.50;99.90
5901;DHT22;2976;49.764;9.796;2024-02-16T05:55:12;7.40;99.90
5901;DHT22;2976;49.764;9.796;2024-02-16T05:57:40;7.30;99.90
5901;DHT22;2976;49.764;9.796;2024-02-16T06:00:08;7.20;99.90
5901;DHT22;2976;49.764;9.796;2024-02-16T06:02:36;7.20;99.90
5901;DHT22;2976;49.764;9.796;2024-02-16T06:05:03;7.10;99.90
5901;DHT22;2976;49.764;9.796;2024-02-16T06:07:29;7.10;99.90
5901;DHT22;2976;49.764;9.796;2024-02-16T06:09:55;7.10;99.90
5901;DHT22;2976;49.764;9.796;2024-02-16T06:12:21;7.00;99.90
5901;DHT22;2976;49.764;9.796;2024-02-16T06:14:47;7.00;99.90
5901;DHT22;2976;49.764;9.796;2024-02-16T06:17:14;7.00;99.90
5901;DHT22;2976;49.764;9.796;2024-02-16T06:19:40;7.00;99.90
5901;DHT22;2976;49.764;9.796;2024-02-16T06:22:07;7.00;99.90
5901;DHT22;2976;49.764;9.796;2024-02-16T06:24:34;6.90;99.90
5901;DHT22;2976;49.764;9.796;2024-02-16T06:26:59;6.90;99.90
5901;DHT22;2976;49.764;9.796;2024-02-16T06:29:25;6.90;99.90
5901;DHT22;2976;49.764;9.796;2024-02-16T06:31:50;6.90;99.90
5901;DHT22;2976;49.764;9.796;2024-02-16T06:34:17;6.90;99.90
5901;DHT22;2976;49.764;9.796;2024-02-16T06:36:43;6.90;99.90
5901;DHT22;2976;49.764;9.796;2024-02-16T06:39:08;6.90;99.90
5901;DHT22;2976;49.764;9.796;2024-02-16T06:41:42;6.90;99.90
5901;DHT22;2976;49.764;9.796;2024-02-16T06:44:09;7.00;99.90
5901;DHT22;2976;49.764;9.796;2024-02-16T06:46:35;7.10;99.90
5901;DHT22;2976;49.764;9.796;2024-02-16T06:49:00;7.20;99.90
5901;DHT22;2976;49.764;9.796;2024-02-16T06:51:26;7.20;99.90
5901;DHT22;2976;49.764;9.796;2024-02-16T06:53:54;7.30;99.90
5901;DHT22;2976;49.764;9.796;2024-02-16T06:56:19;7.30;99.90
5901;DHT22;2976;49.764;9.796;2024-02-16T06:58:45;7.30;99.90
5901;DHT22;2976;49.764;9.796;2024-02-16T07:01:12;7.30;99.90
5901;DHT22;2976;49.764;9.796;2024-02-16T07:03:38;7.30;99.90
5901;DHT22;2976;49.764;9.796;2024-02-16T07:06:04;7.30;99.90
5901;DHT22;2976;49.764;9.796;2024-02-16T07:08:33;7.30;99.90
5901;DHT22;2976;49.764;9.796;2024-02-16T07:10:58;7.30;99.90
5901;DHT22;2976;49.764;9.796;2024-02-16T07:13:24;7.30;99.90
5901;DHT22;2976;49.764;9.796;2024-02-16T07:15:50;7.40;99.90
5901;DHT22;2976;49.764;9.796;2024-02-16T07:18:16;7.40;99.90
5901;DHT22;2976;49.764;9.796;2024-02-16T07:20:41;7.50;99.90
5901;DHT22;2976;49.764;9.796;2024-02-16T07:23:07;7.60;99.90
5901;DHT22;2976;49.764;9.796;2024-02-16T07:25:35;7.60;99.90
5901;DHT22;2976;49.764;9.796;2024-02-16T07:28:00;7.60;99.90
5901;DHT22;2976;49.764;9.796;2024-02-16T07:30:26;7.80;99.90
5901;DHT22;2976;49.764;9.796;2024-02-16T07:32:52;7.80;99.90
5901;DHT22;2976;49.764;9.796;2024-02-16T07:35:18;7.80;99.90
5901;DHT22;2976;49.764;9.796;2024-02-16T07:37:44;8.00;99.90
5901;DHT22;2976;49.764;9.796;2024-02-16T07:40:10;8.20;99.90
5901;DHT22;2976;49.764;9.796;2024-02-16T07:42:39;8.40;99.90
5901;DHT22;2976;49.764;9.796;2024-02-16T07:45:05;8.50;99.90
5901;DHT22;2976;49.764;9.796;2024-02-16T07:47:32;8.70;99.90
5901;DHT22;2976;49.764;9.796;2024-02-16T07:49:57;9.00;99.90
5901;DHT22;2976;49.764;9.796;2024-02-16T07:52:23;9.10;99.90
5901;DHT22;2976;49.764;9.796;2024-02-16T07:54:48;9.30;99.90
5901;DHT22;2976;49.764;9.796;2024-02-16T07:57:17;9.50;99.90
5901;DHT22;2976;49.764;9.796;2024-02-16T07:59:42;9.60;99.90
5901;DHT22;2976;49.764;9.796;2024-02-16T08:02:09;9.80;99.90
5901;DHT22;2976;49.764;9.796;2024-02-16T08:04:35;10.00;99.90
5901;DHT22;2976;49.764;9.796;2024-02-16T08:07:01;10.20;99.90
5901;DHT22;2976;49.764;9.796;2024-02-16T08:09:27;10.30;99.90
5901;DHT22;2976;49.764;9.796;2024-02-16T08:11:53;10.40;99.90
5901;DHT22;2976;49.764;9.796;2024-02-16T08:14:18;10.60;99.90
5901;DHT22;2976;49.764;9.796;2024-02-16T08:16:44;11.00;99.90
5901;DHT22;2976;49.764;9.796;2024-02-16T08:19:09;11.40;99.90
5901;DHT22;2976;49.764;9.796;2024-02-16T08:21:35;11.80;99.90
5901;DHT22;2976;49.764;9.796;2024-02-16T08:24:00;12.10;99.90
5901;DHT22;2976;49.764;9.796;2024-02-16T08:26:26;12.30;99.90
5901;DHT22;2976;49.764;9.796;2024-02-16T08:28:52;12.30;61.20
5901;DHT22;2976;49.764;9.796;2024-02-16T08:31:18;12.40;59.00
5901;DHT22;2976;49.764;9.796;2024-02-16T08:33:44;12.50;44.20
5901;DHT22;2976;49.764;9.796;2024-02-16T08:36:10;12.50;22.90
5901;DHT22;2976;49.764;9.796;2024-02-16T08:38:39;12.30;41.10
5901;DHT22;2976;49.764;9.796;2024-02-16T08:41:04;12.10;74.90
5901;DHT22;2976;49.764;9.796;2024-02-16T08:43:30;12.00;85.20
5901;DHT22;2976;49.764;9.796;2024-02-16T08:45:56;11.90;93.50
5901;DHT22;2976;49.764;9.796;2024-02-16T08:48:23;11.80;94.90
5901;DHT22;2976;49.764;9.796;2024-02-16T08:50:49;11.60;92.00
5901;DHT22;2976;49.764;9.796;2024-02-16T08:53:15;11.60;80.30
5901;DHT22;2976;49.764;9.796;2024-02-16T08:55:42;11.60;60.10
5901;DHT22;2976;49.764;9.796;2024-02-16T08:58:08;11.50;72.70
5901;DHT22;2976;49.764;9.796;2024-02-16T09:00:34;11.60;39.70
5901;DHT22;2976;49.764;9.796;2024-02-16T09:03:00;11.70;38.10
5901;DHT22;2976;49.764;9.796;2024-02-16T09:05:28;11.90;36.30
5901;DHT22;2976;49.764;9.796;2024-02-16T09:07:54;12.00;32.80
5901;DHT22;2976;49.764;9.796;2024-02-16T09:10:19;12.20;34.30
5901;DHT22;2976;49.764;9.796;2024-02-16T09:12:45;12.30;27.10
5901;DHT22;2976;49.764;9.796;2024-02-16T09:15:11;12.40;20.00
5901;DHT22;2976;49.764;9.796;2024-02-16T09:17:37;12.50;1.00
5901;DHT22;2976;49.764;9.796;2024-02-16T09:20:03;12.70;1.00
5901;DHT22;2976;49.764;9.796;2024-02-16T09:22:30;12.60;1.00
5901;DHT22;2976;49.764;9.796;2024-02-16T09:24:55;12.70;1.00
5901;DHT22;2976;49.764;9.796;2024-02-16T09:27:25;12.70;1.00
5901;DHT22;2976;49.764;9.796;2024-02-16T09:29:51;12.60;43.50
5901;DHT22;2976;49.764;9.796;2024-02-16T09:32:16;12.50;75.20
5901;DHT22;2976;49.764;9.796;2024-02-16T09:34:42;12.30;41.50
5901;DHT22;2976;49.764;9.796;2024-02-16T09:37:07;12.30;24.40
5901;DHT22;2976;49.764;9.796;2024-02-16T09:39:33;12.20;40.60
5901;DHT22;2976;49.764;9.796;2024-02-16T09:41:59;12.30;31.90
5901;DHT22;2976;49.764;9.796;2024-02-16T09:44:26;12.50;24.10
5901;DHT22;2976;49.764;9.796;2024-02-16T09:46:54;12.60;18.70
5901;DHT22;2976;49.764;9.796;2024-02-16T09:49:20;12.90;10.30
5901;DHT22;2976;49.764;9.796;2024-02-16T09:51:46;13.10;13.10
5901;DHT22;2976;49.764;9.796;2024-02-16T09:54:11;13.30;7.00
5901;DHT22;2976;49.764;9.796;2024-02-16T09:56:37;13.60;7.40
5901;DHT22;2976;49.764;9.796;2024-02-16T09:59:03;13.70;1.00
5901;DHT22;2976;49.764;9.796;2024-02-16T10:01:28;13.60;1.00
5901;DHT22;2976;49.764;9.796;2024-02-16T10:04:06;13.80;1.00
5901;DHT22;2976;49.764;9.796;2024-02-16T10:06:33;13.90;1.00
5901;DHT22;2976;49.764;9.796;2024-02-16T10:08:58;14.00;1.00
5901;DHT22;2976;49.764;9.796;2024-02-16T10:11:27;14.20;1.00
5901;DHT22;2976;49.764;9.796;2024-02-16T10:14:03;14.40;1.00
5901;DHT22;2976;49.764;9.796;2024-02-16T10:16:30;14.30;1.00
5901;DHT22;2976;49.764;9.796;2024-02-16T10:18:56;14.40;1.00
5901;DHT22;2976;49.764;9.796;2024-02-16T10:21:28;14.40;1.00
5901;DHT22;2976;49.764;9.796;2024-02-16T10:24:01;14.40;1.00
5901;DHT22;2976;49.764;9.796;2024-02-16T10:26:31;14.50;1.00
5901;DHT22;2976;49.764;9.796;2024-02-16T10:31:27;14.20;1.00
5901;DHT22;2976;49.764;9.796;2024-02-16T10:34:04;14.20;1.00
5901;DHT22;2976;49.764;9.796;2024-02-16T10:36:38;14.10;1.00
5901;DHT22;2976;49.764;9.796;2024-02-16T10:39:06;14.00;1.00
5901;DHT22;2976;49.764;9.796;2024-02-16T10:41:40;14.20;1.00
5901;DHT22;2976;49.764;9.796;2024-02-16T10:44:06;14.30;1.00
5901;DHT22;2976;49.764;9.796;2024-02-16T10:46:32;14.50;1.00
5901;DHT22;2976;49.764;9.796;2024-02-16T10:48:58;14.70;1.00
5901;DHT22;2976;49.764;9.796;2024-02-16T10:51:47;14.70;1.00
5901;DHT22;2976;49.764;9.796;2024-02-16T10:54:17;14.80;1.00
5901;DHT22;2976;49.764;9.796;2024-02-16T10:56:43;14.80;1.00
5901;DHT22;2976;49.764;9.796;2024-02-16T10:59:10;14.80;1.00
5901;DHT22;2976;49.764;9.796;2024-02-16T11:01:43;14.80;1.00
5901;DHT22;2976;49.764;9.796;2024-02-16T11:04:18;14.70;1.00
5901;DHT22;2976;49.764;9.796;2024-02-16T11:11:59;14.50;1.00
5901;DHT22;2976;49.764;9.796;2024-02-16T11:14:47;14.40;1.00
5901;DHT22;2976;49.764;9.796;2024-02-16T11:17:22;14.40;1.00
5901;DHT22;2976;49.764;9.796;2024-02-16T11:19:48;14.50;1.00
5901;DHT22;2976;49.764;9.796;2024-02-16T11:22:18;14.60;1.00
5901;DHT22;2976;49.764;9.796;2024-02-16T11:24:45;14.60;1.00
5901;DHT22;2976;49.764;9.796;2024-02-16T11:27:13;14.80;1.00
5901;DHT22;2976;49.764;9.796;2024-02-16T11:29:41;15.00;1.00
5901;DHT22;2976;49.764;9.796;2024-02-16T11:32:07;15.40;1.00
5901;DHT22;2976;49.764;9.796;2024-02-16T11:34:34;15.90;1.00
5901;DHT22;2976;49.764;9.796;2024-02-16T11:37:01;16.30;1.00
5901;DHT22;2976;49.764;9.796;2024-02-16T11:39:27;16.60;1.00
5901;DHT22;2976;49.764;9.796;2024-02-16T11:42:07;16.70;1.00
5901;DHT22;2976;49.764;9.796;2024-02-16T11:44:36;16.50;1.00
5901;DHT22;2976;49.764;9.796;2024-02-16T11:47:02;16.20;1.00
5901;DHT22;2976;49.764;9.796;2024-02-16T11:49:32;16.10;1.00
5901;DHT22;2976;49.764;9.796;2024-02-16T11:51:59;16.00;1.00
5901;DHT22;2976;49.764;9.796;2024-02-16T11:54:25;15.90;1.00
5901;DHT22;2976;49.764;9.796;2024-02-16T11:56:52;16.00;1.00
5901;DHT22;2976;49.764;9.796;2024-02-16T11:59:18;16.10;1.00
5901;DHT22;2976;49.764;9.796;2024-02-16T12:01:58;16.20;1.00
5901;DHT22;2976;49.764;9.796;2024-02-16T12:04:28;16.30;1.00
5901;DHT22;2976;49.764;9.796;2024-02-16T12:06:58;16.30;1.00
5901;DHT22;2976;49.764;9.796;2024-02-16T12:09:24;16.20;1.00
5901;DHT22;2976;49.764;9.796;2024-02-16T12:11:54;16.10;1.00
5901;DHT22;2976;49.764;9.796;2024-02-16T12:14:22;16.00;1.00
5901;DHT22;2976;49.764;9.796;2024-02-16T12:16:57;16.00;1.00
5901;DHT22;2976;49.764;9.796;2024-02-16T12:19:24;16.00;1.00
5901;DHT22;2976;49.764;9.796;2024-02-16T12:21:53;16.00;1.00
5901;DHT22;2976;49.764;9.796;2024-02-16T12:24:22;16.10;1.00
5901;DHT22;2976;49.764;9.796;2024-02-16T12:26:47;16.10;1.00
5901;DHT22;2976;49.764;9.796;2024-02-16T12:29:13;16.10;1.00
5901;DHT22;2976;49.764;9.796;2024-02-16T12:31:43;16.00;1.00
5901;DHT22;2976;49.764;9.796;2024-02-16T12:34:10;16.10;1.00
5901;DHT22;2976;49.764;9.796;2024-02-16T12:36:36;16.00;1.00
5901;DHT22;2976;49.764;9.796;2024-02-16T12:39:03;16.10;1.00
5901;DHT22;2976;49.764;9.796;2024-02-16T12:41:32;16.20;1.00
5901;DHT22;2976;49.764;9.796;2024-02-16T12:43:59;16.10;1.00
5901;DHT22;2976;49.764;9.796;2024-02-16T12:46:25;16.00;1.00
5901;DHT22;2976;49.764;9.796;2024-02-16T12:48:51;15.90;1.00
5901;DHT22;2976;49.764;9.796;2024-02-16T12:51:17;15.80;1.00
5901;DHT22;2976;49.764;9.796;2024-02-16T12:53:43;15.70;1.00
5901;DHT22;2976;49.764;9.796;2024-02-16T12:56:10;15.60;1.00
5901;DHT22;2976;49.764;9.796;2024-02-16T12:58:36;15.60;1.00
5901;DHT22;2976;49.764;9.796;2024-02-16T13:01:08;15.60;1.00
5901;DHT22;2976;49.764;9.796;2024-02-16T13:03:37;15.60;1.00
5901;DHT22;2976;49.764;9.796;2024-02-16T13:06:03;15.70;1.00
5901;DHT22;2976;49.764;9.796;2024-02-16T13:08:29;15.70;1.00
5901;DHT22;2976;49.764;9.796;2024-02-16T13:10:55;15.70;1.00
5901;DHT22;2976;49.764;9.796;2024-02-16T13:13:21;15.80;1.00
5901;DHT22;2976;49.764;9.796;2024-02-16T13:15:47;15.90;1.00
5901;DHT22;2976;49.764;9.796;2024-02-16T13:18:13;15.90;1.00
5901;DHT22;2976;49.764;9.796;2024-02-16T13:20:39;16.00;1.00
5901;DHT22;2976;49.764;9.796;2024-02-16T13:23:05;16.00;1.00
5901;DHT22;2976;49.764;9.796;2024-02-16T13:25:30;15.90;1.00
5901;DHT22;2976;49.764;9.796;2024-02-16T13:27:56;16.00;1.00
5901;DHT22;2976;49.764;9.796;2024-02-16T13:30:21;16.00;1.00
5901;DHT22;2976;49.764;9.796;2024-02-16T13:32:47;16.10;1.00
5901;DHT22;2976;49.764;9.796;2024-02-16T13:35:13;16.10;1.00
5901;DHT22;2976;49.764;9.796;2024-02-16T13:37:40;16.30;1.00
5901;DHT22;2976;49.764;9.796;2024-02-16T13:40:07;16.20;1.00
5901;DHT22;2976;49.764;9.796;2024-02-16T13:42:36;16.20;1.00
5901;DHT22;2976;49.764;9.796;2024-02-16T13:45:02;16.10;1.00
5901;DHT22;2976;49.764;9.796;2024-02-16T13:47:28;16.30;1.00
5901;DHT22;2976;49.764;9.796;2024-02-16T13:49:53;16.30;1.00
5901;DHT22;2976;49.764;9.796;2024-02-16T13:52:19;16.30;1.00
5901;DHT22;2976;49.764;9.796;2024-02-16T13:54:45;16.20;1.00
5901;DHT22;2976;49.764;9.796;2024-02-16T13:57:10;16.20;1.00
5901;DHT22;2976;49.764;9.796;2024-02-16T13:59:36;16.20;1.00
5901;DHT22;2976;49.764;9.796;2024-02-16T14:02:01;16.20;1.00
5901;DHT22;2976;49.764;9.796;2024-02-16T14:04:27;16.30;1.00
5901;DHT22;2976;49.764;9.796;2024-02-16T14:06:53;16.30;1.00
5901;DHT22;2976;49.764;9.796;2024-02-16T14:09:19;16.20;1.00
5901;DHT22;2976;49.764;9.796;2024-02-16T14:11:45;16.20;1.00
5901;DHT22;2976;49.764;9.796;2024-02-16T14:14:11;16.30;1.00
5901;DHT22;2976;49.764;9.796;2024-02-16T14:16:36;16.20;1.00
5901;DHT22;2976;49.764;9.796;2024-02-16T14:19:02;16.20;1.00
5901;DHT22;2976;49.764;9.796;2024-02-16T14:21:28;16.20;1.00
5901;DHT22;2976;49.764;9.796;2024-02-16T14:23:54;16.40;1.00
5901;DHT22;2976;49.764;9.796;2024-02-16T14:26:20;16.50;1.00
5901;DHT22;2976;49.764;9.796;2024-02-16T14:28:46;16.60;1.00
5901;DHT22;2976;49.764;9.796;2024-02-16T14:31:11;16.60;1.00
5901;DHT22;2976;49.764;9.796;2024-02-16T14:33:39;16.60;1.00
5901;DHT22;2976;49.764;9.796;2024-02-16T14:36:05;16.60;1.00
5901;DHT22;2976;49.764;9.796;2024-02-16T14:38:34;16.60;1.00
5901;DHT22;2976;49.764;9.796;2024-02-16T14:40:59;16.50;1.00
5901;DHT22;2976;49.764;9.796;2024-02-16T14:43:32;16.50;1.00
5901;DHT22;2976;49.764;9.796;2024-02-16T14:45:58;16.40;1.00
5901;DHT22;2976;49.764;9.796;2024-02-16T14:48:24;16.40;1.00
5901;DHT22;2976;49.764;9.796;2024-02-16T14:50:51;16.30;1.00
5901;DHT22;2976;49.764;9.796;2024-02-16T14:53:19;16.20;1.00
5901;DHT22;2976;49.764;9.796;2024-02-16T14:55:44;16.10;1.00
5901;DHT22;2976;49.764;9.796;2024-02-16T14:58:12;16.00;1.00
5901;DHT22;2976;49.764;9.796;2024-02-16T15:00:37;16.00;1.00
5901;DHT22;2976;49.764;9.796;2024-02-16T15:03:03;16.00;1.00
5901;DHT22;2976;49.764;9.796;2024-02-16T15:05:29;15.90;1.00
5901;DHT22;2976;49.764;9.796;2024-02-16T15:07:54;15.70;1.00
5901;DHT22;2976;49.764;9.796;2024-02-16T15:10:20;15.70;1.00
5901;DHT22;2976;49.764;9.796;2024-02-16T15:12:45;15.60;1.00
5901;DHT22;2976;49.764;9.796;2024-02-16T15:15:11;15.50;1.00
5901;DHT22;2976;49.764;9.796;2024-02-16T15:17:38;15.50;1.00
5901;DHT22;2976;49.764;9.796;2024-02-16T15:20:05;15.50;1.00
5901;DHT22;2976;49.764;9.796;2024-02-16T15:22:32;15.40;1.00
5901;DHT22;2976;49.764;9.796;2024-02-16T15:24:58;15.30;1.00
5901;DHT22;2976;49.764;9.796;2024-02-16T15:27:23;15.30;1.00
5901;DHT22;2976;49.764;9.796;2024-02-16T15:29:49;15.20;1.00
5901;DHT22;2976;49.764;9.796;2024-02-16T15:32:15;15.20;1.00
5901;DHT22;2976;49.764;9.796;2024-02-16T15:34:41;15.20;1.00
5901;DHT22;2976;49.764;9.796;2024-02-16T15:37:10;15.10;1.00
5901;DHT22;2976;49.764;9.796;2024-02-16T15:39:36;15.10;1.00
5901;DHT22;2976;49.764;9.796;2024-02-16T15:42:01;15.00;1.00
5901;DHT22;2976;49.764;9.796;2024-02-16T15:44:27;15.00;1.00
5901;DHT22;2976;49.764;9.796;2024-02-16T15:46:54;15.00;1.00
5901;DHT22;2976;49.764;9.796;2024-02-16T15:49:20;14.90;1.00
5901;DHT22;2976;49.764;9.796;2024-02-16T15:51:46;14.90;1.00
5901;DHT22;2976;49.764;9.796;2024-02-16T15:54:11;14.90;1.00
5901;DHT22;2976;49.764;9.796;2024-02-16T15:56:38;14.90;1.00
5901;DHT22;2976;49.764;9.796;2024-02-16T15:59:04;14.80;1.00
5901;DHT22;2976;49.764;9.796;2024-02-16T16:01:29;14.80;1.00
5901;DHT22;2976;49.764;9.796;2024-02-16T16:03:58;14.80;1.00
5901;DHT22;2976;49.764;9.796;2024-02-16T16:06:23;14.70;1.00
5901;DHT22;2976;49.764;9.796;2024-02-16T16:08:49;14.70;1.00
5901;DHT22;2976;49.764;9.796;2024-02-16T16:11:15;14.70;1.00
5901;DHT22;2976;49.764;9.796;2024-02-16T16:13:41;14.60;1.00
5901;DHT22;2976;49.764;9.796;2024-02-16T16:16:07;14.60;1.00
5901;DHT22;2976;49.764;9.796;2024-02-16T16:18:33;14.50;1.00
5901;DHT22;2976;49.764;9.796;2024-02-16T16:21:04;14.60;1.00